createdAt,value
2019-01-10T00:01:26.810Z,1.10
2019-01-10T00:03:57.978Z,0.83
2019-01-10T00:06:30.475Z,1.63
2019-01-10T00:09:01.659Z,1.17
2019-01-10T00:11:33.914Z,1.30
2019-01-10T00:14:05.052Z,0.60
2019-01-10T00:16:36.041Z,1.33
2019-01-10T00:19:07.188Z,2.00
2019-01-10T00:21:38.298Z,0.87
2019-01-10T00:24:09.386Z,0.70
2019-01-10T00:26:40.300Z,0.93
2019-01-10T00:29:11.331Z,0.87
2019-01-10T00:31:44.015Z,1.00
2019-01-10T00:34:15.042Z,1.40
2019-01-10T00:36:46.326Z,1.13
2019-01-10T00:39:17.270Z,0.87
2019-01-10T00:41:49.884Z,0.97
2019-01-10T00:44:20.981Z,1.20
2019-01-10T00:46:52.188Z,1.00
2019-01-10T00:49:23.443Z,1.37
2019-01-10T00:51:54.620Z,0.70
2019-01-10T00:54:25.838Z,1.00
2019-01-10T00:56:57.014Z,1.30
2019-01-10T00:59:29.389Z,0.93
2019-01-10T01:02:00.451Z,1.43
2019-01-10T01:04:31.661Z,1.57
2019-01-10T01:07:02.715Z,1.13
2019-01-10T01:09:33.708Z,0.90
2019-01-10T01:12:04.788Z,0.80
2019-01-10T01:14:38.279Z,1.37
2019-01-10T01:17:10.267Z,1.50
2019-01-10T01:19:41.172Z,2.00
2019-01-10T01:22:12.160Z,1.00
2019-01-10T01:24:43.161Z,0.80
2019-01-10T01:27:14.008Z,0.80
2019-01-10T01:29:44.978Z,1.40
2019-01-10T01:32:16.068Z,0.87
2019-01-10T01:34:47.096Z,1.03
2019-01-10T01:37:18.062Z,1.00
2019-01-10T01:39:49.047Z,0.87
2019-01-10T01:42:20.033Z,0.80
2019-01-10T01:44:50.948Z,1.17
2019-01-10T01:47:22.089Z,0.90
2019-01-10T01:49:53.164Z,1.23
2019-01-10T01:52:24.022Z,1.73
2019-01-10T01:54:55.150Z,1.30
2019-01-10T01:57:26.227Z,2.93
2019-01-10T01:59:57.301Z,0.90
2019-01-10T02:02:28.237Z,1.43
2019-01-10T02:04:59.572Z,1.10
2019-01-10T02:07:36.459Z,1.20
2019-01-10T02:10:15.600Z,1.20
2019-01-10T02:12:46.648Z,1.97
2019-01-10T02:15:17.876Z,1.53
2019-01-10T02:17:49.532Z,1.90
2019-01-10T02:20:20.698Z,1.33
2019-01-10T02:22:53.251Z,1.00
2019-01-10T02:25:24.385Z,0.83
2019-01-10T02:27:55.539Z,0.90
2019-01-10T02:30:28.872Z,0.83
2019-01-10T02:32:59.990Z,1.20
2019-01-10T02:35:31.010Z,0.90
2019-01-10T02:38:02.147Z,0.80
2019-01-10T02:40:33.316Z,1.20
2019-01-10T02:43:04.830Z,1.73
2019-01-10T02:45:35.715Z,0.93
2019-01-10T02:48:06.880Z,1.00
2019-01-10T02:50:38.111Z,0.97
2019-01-10T02:53:09.083Z,0.90
2019-01-10T02:55:39.986Z,0.90
2019-01-10T02:58:11.074Z,1.20
2019-01-10T03:00:42.031Z,0.73
2019-01-10T03:03:13.317Z,0.90
2019-01-10T03:05:44.414Z,1.20
2019-01-10T03:08:15.318Z,0.90
2019-01-10T03:10:46.607Z,1.27
2019-01-10T03:13:17.734Z,0.80
2019-01-10T03:15:48.784Z,1.13
2019-01-10T03:18:19.850Z,0.90
2019-01-10T03:20:52.598Z,1.57
2019-01-10T03:23:23.352Z,0.87
2019-01-10T03:25:54.292Z,0.83
2019-01-10T03:28:25.330Z,1.30
2019-01-10T03:30:56.253Z,1.10
2019-01-10T03:33:27.139Z,1.20
2019-01-10T03:35:58.079Z,1.23
2019-01-10T03:38:28.963Z,1.50
2019-01-10T03:40:59.833Z,0.90
2019-01-10T03:43:30.795Z,1.33
2019-01-10T03:46:01.678Z,1.00
2019-01-10T03:48:32.747Z,1.00
2019-01-10T03:51:03.801Z,1.10
2019-01-10T03:53:34.745Z,0.90
2019-01-10T03:56:06.123Z,1.10
2019-01-10T03:58:37.437Z,1.07
2019-01-10T04:01:08.696Z,1.13
2019-01-10T04:03:40.016Z,1.47
2019-01-10T04:06:11.101Z,1.30
2019-01-10T04:08:42.189Z,1.70
2019-01-10T04:11:13.356Z,1.23
2019-01-10T04:13:44.604Z,1.27
2019-01-10T04:16:15.591Z,1.23
2019-01-10T04:18:46.890Z,0.93
2019-01-10T04:21:17.955Z,1.20
2019-01-10T04:23:48.989Z,1.17
2019-01-10T04:26:19.902Z,1.20
2019-01-10T04:28:50.853Z,1.40
2019-01-10T04:31:21.848Z,1.17
2019-01-10T04:33:53.310Z,1.47
2019-01-10T04:36:24.387Z,0.80
2019-01-10T04:38:55.341Z,1.33
2019-01-10T04:41:26.235Z,0.87
2019-01-10T04:44:06.646Z,1.20
2019-01-10T04:46:29.887Z,1.10
2019-01-10T04:49:00.748Z,1.50
2019-01-10T04:51:31.626Z,1.07
2019-01-10T04:54:02.489Z,1.33
2019-01-10T04:56:36.334Z,1.10
2019-01-10T04:59:07.313Z,1.33
2019-01-10T05:01:38.293Z,1.57
2019-01-10T05:04:09.196Z,1.40
2019-01-10T05:06:41.538Z,1.93
2019-01-10T05:09:12.593Z,1.10
2019-01-10T05:11:43.586Z,1.17
2019-01-10T05:14:16.721Z,2.13
2019-01-10T05:16:47.426Z,1.20
2019-01-10T05:19:18.337Z,1.23
2019-01-10T05:21:49.272Z,1.50
2019-01-10T05:24:20.214Z,1.37
2019-01-10T05:26:51.454Z,1.37
2019-01-10T05:29:22.745Z,1.40
2019-01-10T05:31:53.934Z,2.53
2019-01-10T05:34:25.067Z,1.67
2019-01-10T05:36:56.603Z,1.57
2019-01-10T05:39:27.870Z,1.60
2019-01-10T05:41:59.044Z,1.17
2019-01-10T05:44:30.176Z,1.87
2019-01-10T05:47:01.299Z,1.67
2019-01-10T05:49:32.391Z,1.53
2019-01-10T05:52:03.415Z,1.67
2019-01-10T05:54:46.394Z,1.80
2019-01-10T05:57:17.396Z,1.60
2019-01-10T05:59:48.336Z,1.40
2019-01-10T06:02:19.241Z,2.17
2019-01-10T06:04:50.892Z,1.20
2019-01-10T06:07:23.319Z,1.60
2019-01-10T06:09:54.200Z,2.40
2019-01-10T06:12:25.140Z,2.20
2019-01-10T06:14:56.371Z,1.63
2019-01-10T06:17:27.786Z,0.93
2019-01-10T06:19:58.962Z,1.83
2019-01-10T06:22:32.788Z,1.40
2019-01-10T06:25:04.764Z,1.70
2019-01-10T06:27:36.238Z,1.03
2019-01-10T06:30:10.406Z,1.57
2019-01-10T06:32:41.542Z,2.20
2019-01-10T06:35:12.391Z,1.93
2019-01-10T06:37:43.651Z,1.70
2019-01-10T06:40:17.409Z,1.30
2019-01-10T06:42:49.580Z,1.93
2019-01-10T06:45:20.796Z,1.90
2019-01-10T06:47:51.790Z,1.80
2019-01-10T06:50:23.010Z,2.10
2019-01-10T06:52:54.072Z,1.20
2019-01-10T06:55:26.798Z,2.13
2019-01-10T06:57:57.799Z,2.50
2019-01-10T07:00:28.817Z,1.97
2019-01-10T07:03:01.102Z,1.93
2019-01-10T07:05:31.978Z,1.90
2019-01-10T07:08:02.878Z,1.53
2019-01-10T07:10:33.850Z,2.13
2019-01-10T07:13:06.055Z,1.60
2019-01-10T07:15:39.167Z,2.90
2019-01-10T07:18:10.118Z,2.77
2019-01-10T07:20:43.254Z,2.90
2019-01-10T07:23:17.586Z,2.90
2019-01-10T07:25:50.433Z,4.27
2019-01-10T07:28:28.265Z,8.93
2019-01-10T07:31:01.074Z,2.20
2019-01-10T07:33:32.326Z,3.50
2019-01-10T07:36:03.514Z,4.00
2019-01-10T07:38:34.478Z,2.93
2019-01-10T07:41:05.728Z,2.33
2019-01-10T07:43:36.666Z,3.83
2019-01-10T07:46:07.892Z,3.13
2019-01-10T07:48:38.954Z,3.93
2019-01-10T07:51:09.870Z,3.43
2019-01-10T07:53:40.922Z,4.03
2019-01-10T07:56:11.860Z,3.17
2019-01-10T07:58:43.433Z,4.28
2019-01-10T08:01:14.410Z,3.57
2019-01-10T08:03:46.593Z,4.20
2019-01-10T08:06:17.727Z,4.77
2019-01-10T08:08:48.934Z,3.47
2019-01-10T08:11:20.116Z,4.43
2019-01-10T08:13:54.981Z,5.00
2019-01-10T08:16:27.670Z,4.90
2019-01-10T08:18:58.660Z,4.23
2019-01-10T08:21:29.695Z,5.50
2019-01-10T08:24:01.946Z,5.37
2019-01-10T08:26:32.840Z,5.00
2019-01-10T08:29:04.023Z,5.47
2019-01-10T08:31:36.305Z,5.20
2019-01-10T08:34:07.440Z,5.23
2019-01-10T08:36:38.393Z,5.50
2019-01-10T08:39:10.035Z,4.60
2019-01-10T08:41:40.977Z,5.80
2019-01-10T08:44:14.227Z,5.40
2019-01-10T08:46:45.101Z,5.87
2019-01-10T08:49:17.598Z,7.10
2019-01-10T08:51:48.659Z,5.30
2019-01-10T08:54:20.849Z,7.17
2019-01-10T08:56:57.381Z,5.23
2019-01-10T08:59:28.888Z,5.63
2019-01-10T09:02:02.261Z,4.60
2019-01-10T09:04:33.569Z,5.43
2019-01-10T09:07:04.721Z,4.83
2019-01-10T09:09:36.949Z,6.97
2019-01-10T09:12:09.367Z,5.30
2019-01-10T09:14:40.695Z,5.90
2019-01-10T09:17:11.773Z,5.30
2019-01-10T09:19:42.831Z,5.47
2019-01-10T09:22:13.986Z,5.60
2019-01-10T09:24:45.029Z,4.63
2019-01-10T09:27:16.397Z,6.07
2019-01-10T09:29:47.717Z,6.33
2019-01-10T09:32:18.827Z,6.43
2019-01-10T09:34:49.871Z,5.40
2019-01-10T09:37:21.855Z,6.30
2019-01-10T09:39:53.023Z,4.73
2019-01-10T09:42:27.711Z,4.40
2019-01-10T09:44:58.899Z,5.90
2019-01-10T09:47:30.193Z,6.10
2019-01-10T09:50:01.909Z,4.90
2019-01-10T09:52:32.986Z,5.60
2019-01-10T09:55:05.265Z,5.87
2019-01-10T09:57:36.399Z,5.40
2019-01-10T10:00:18.309Z,6.17
2019-01-10T10:02:49.435Z,5.70
2019-01-10T10:05:22.155Z,5.83
2019-01-10T10:07:53.359Z,5.67
2019-01-10T10:10:24.864Z,5.33
2019-01-10T10:12:55.966Z,5.47
2019-01-10T10:15:27.097Z,4.97
2019-01-10T10:17:58.259Z,5.37
2019-01-10T10:20:29.424Z,4.73
2019-01-10T10:23:00.707Z,4.80
2019-01-10T10:25:31.821Z,4.83
2019-01-10T10:28:02.842Z,4.40
2019-01-10T10:30:34.055Z,4.50
2019-01-10T10:33:05.147Z,3.80
2019-01-10T10:35:36.223Z,3.93
2019-01-10T10:38:07.349Z,3.03
2019-01-10T10:40:38.384Z,2.80
2019-01-10T10:43:09.554Z,3.00
2019-01-10T10:45:43.428Z,2.30
2019-01-10T10:48:15.054Z,3.20
2019-01-10T10:50:46.541Z,2.70
2019-01-10T10:53:17.516Z,3.20
2019-01-10T10:55:48.929Z,3.07
2019-01-10T10:58:20.288Z,3.00
2019-01-10T11:00:53.372Z,3.30
2019-01-10T11:03:24.548Z,4.33
2019-01-10T11:05:57.032Z,3.60
2019-01-10T11:08:27.918Z,3.73
2019-01-10T11:10:59.011Z,3.77
2019-01-10T11:13:30.212Z,3.97
2019-01-10T11:16:10.208Z,3.67
2019-01-10T11:18:34.080Z,4.30
2019-01-10T11:21:05.248Z,4.93
2019-01-10T11:23:36.298Z,4.53
2019-01-10T11:26:09.628Z,4.27
2019-01-10T11:28:41.035Z,5.20
2019-01-10T11:31:12.173Z,4.07
2019-01-10T11:33:45.072Z,4.63
2019-01-10T11:36:16.456Z,4.00
2019-01-10T11:38:47.581Z,3.70
2019-01-10T11:41:18.608Z,4.40
2019-01-10T11:43:49.724Z,3.80
2019-01-10T11:46:22.404Z,3.77
2019-01-10T11:48:55.469Z,5.27
2019-01-10T11:51:29.966Z,4.77
2019-01-10T11:54:01.178Z,4.40
2019-01-10T11:56:32.173Z,4.30
2019-01-10T11:59:03.269Z,5.10
2019-01-10T12:01:34.359Z,4.67
2019-01-10T12:04:05.380Z,4.83
2019-01-10T12:06:36.634Z,4.33
2019-01-10T12:09:17.025Z,4.80
2019-01-10T12:11:51.175Z,5.43
2019-01-10T12:14:22.369Z,4.47
2019-01-10T12:16:55.288Z,4.93
2019-01-10T12:19:26.244Z,6.60
2019-01-10T12:21:57.667Z,5.17
2019-01-10T12:24:28.841Z,4.70
2019-01-10T12:27:00.730Z,4.97
2019-01-10T12:29:36.278Z,4.07
2019-01-10T12:32:05.732Z,4.13
2019-01-10T12:34:39.047Z,4.10
2019-01-10T12:37:10.151Z,3.83
2019-01-10T12:39:41.280Z,2.60
2019-01-10T12:42:12.423Z,3.53
2019-01-10T12:44:43.450Z,3.50
2019-01-10T12:47:14.417Z,4.43
2019-01-10T12:49:46.525Z,3.50
2019-01-10T12:52:17.572Z,3.40
2019-01-10T12:54:48.619Z,3.50
2019-01-10T12:57:19.712Z,4.03
2019-01-10T12:59:50.873Z,3.60
2019-01-10T13:02:22.054Z,3.37
2019-01-10T13:04:53.200Z,3.27
2019-01-10T13:07:24.174Z,2.90
2019-01-10T13:09:55.322Z,4.60
2019-01-10T13:12:26.437Z,3.50
2019-01-10T13:14:57.457Z,4.50
2019-01-10T13:17:28.539Z,3.50
2019-01-10T13:19:59.945Z,4.20
2019-01-10T13:22:38.717Z,3.70
2019-01-10T13:25:14.778Z,4.17
2019-01-10T13:27:46.283Z,4.20
2019-01-10T13:30:20.643Z,3.77
2019-01-10T13:32:52.277Z,3.97
2019-01-10T13:35:23.615Z,4.80
2019-01-10T13:37:54.935Z,4.10
2019-01-10T13:40:26.381Z,5.27
2019-01-10T13:42:57.586Z,3.10
2019-01-10T13:45:28.821Z,3.10
2019-01-10T13:48:01.343Z,3.10
2019-01-10T13:50:38.133Z,3.20
2019-01-10T13:53:10.719Z,3.20
2019-01-10T13:55:42.469Z,4.40
2019-01-10T13:58:14.175Z,3.17
2019-01-10T14:00:45.763Z,3.40
2019-01-10T14:03:18.499Z,3.63
2019-01-10T14:05:50.224Z,4.43
2019-01-10T14:08:23.963Z,3.47
2019-01-10T14:10:55.490Z,4.40
2019-01-10T14:13:26.423Z,4.37
2019-01-10T14:15:57.579Z,4.70
2019-01-10T14:18:28.764Z,3.87
2019-01-10T14:20:59.906Z,3.70
2019-01-10T14:23:31.067Z,5.63
2019-01-10T14:26:02.439Z,7.17
2019-01-10T14:28:34.883Z,3.70
2019-01-10T14:31:06.239Z,4.20
2019-01-10T14:33:37.305Z,5.80
2019-01-10T14:36:08.349Z,4.77
2019-01-10T14:38:42.228Z,4.23
2019-01-10T14:41:13.101Z,3.97
2019-01-10T14:43:44.069Z,5.20
2019-01-10T14:46:15.101Z,5.23
2019-01-10T14:48:48.925Z,4.80
2019-01-10T14:51:20.277Z,5.57
2019-01-10T14:53:51.488Z,5.90
2019-01-10T14:56:30.405Z,5.00
2019-01-10T14:59:03.591Z,4.57
2019-01-10T15:01:34.851Z,5.03
2019-01-10T15:04:06.114Z,5.20
2019-01-10T15:06:37.172Z,4.50
2019-01-10T15:09:09.191Z,4.70
2019-01-10T15:11:40.049Z,4.53
2019-01-10T15:14:16.167Z,4.20
2019-01-10T15:16:44.228Z,5.30
2019-01-10T15:19:15.167Z,5.27
2019-01-10T15:21:46.274Z,4.60
2019-01-10T15:24:17.369Z,6.80
2019-01-10T15:26:48.331Z,7.60
2019-01-10T15:29:19.222Z,6.57
2019-01-10T15:31:51.143Z,6.77
2019-01-10T15:34:22.241Z,7.37
2019-01-10T15:36:53.263Z,7.70
2019-01-10T15:39:24.577Z,8.60
2019-01-10T15:41:55.499Z,8.10
2019-01-10T15:44:29.194Z,9.13
2019-01-10T15:46:59.600Z,9.20
2019-01-10T15:49:33.853Z,11.57
2019-01-10T15:52:05.233Z,14.20
2019-01-10T15:54:36.388Z,26.77
2019-01-10T15:57:07.677Z,13.47
2019-01-10T15:59:38.627Z,25.63
2019-01-10T16:02:09.954Z,19.23
2019-01-10T16:04:40.970Z,16.60
2019-01-10T16:07:11.990Z,16.93
2019-01-10T16:09:50.080Z,16.67
2019-01-10T16:12:21.110Z,7.80
2019-01-10T16:14:52.146Z,13.33
2019-01-10T16:17:25.690Z,10.57
2019-01-10T16:19:58.356Z,9.97
2019-01-10T16:22:29.316Z,7.73
2019-01-10T16:25:00.500Z,10.40
2019-01-10T16:27:32.544Z,8.50
2019-01-10T16:30:03.889Z,8.80
2019-01-10T16:32:35.072Z,8.90
2019-01-10T16:35:07.172Z,7.57
2019-01-10T16:37:41.780Z,7.73
2019-01-10T16:40:15.093Z,7.30
2019-01-10T16:42:46.494Z,8.03
2019-01-10T16:45:26.648Z,6.17
2019-01-10T16:47:57.594Z,6.77
2019-01-10T16:50:28.766Z,6.87
2019-01-10T16:52:59.660Z,6.17
2019-01-10T16:55:32.177Z,5.60
2019-01-10T16:58:03.298Z,5.47
2019-01-10T17:00:35.446Z,5.80
2019-01-10T17:03:06.572Z,4.13
2019-01-10T17:05:37.740Z,5.10
2019-01-10T17:08:08.863Z,5.50
2019-01-10T17:10:39.917Z,5.30
2019-01-10T17:13:11.061Z,7.33
2019-01-10T17:15:42.393Z,5.40
2019-01-10T17:18:13.506Z,4.63
2019-01-10T17:20:44.705Z,4.23
2019-01-10T17:23:16.257Z,6.10
2019-01-10T17:25:47.991Z,4.93
2019-01-10T17:28:21.697Z,5.90
2019-01-10T17:30:54.707Z,4.83
2019-01-10T17:33:25.959Z,5.07
2019-01-10T17:35:56.918Z,4.80
2019-01-10T17:38:28.161Z,5.80
2019-01-10T17:40:59.165Z,5.40
2019-01-10T17:43:30.117Z,5.00
2019-01-10T17:46:01.255Z,5.40
2019-01-10T17:48:32.384Z,3.93
2019-01-10T17:51:03.901Z,4.57
2019-01-10T17:53:35.249Z,3.70
2019-01-10T17:56:06.508Z,5.30
2019-01-10T17:58:37.594Z,3.80
2019-01-10T18:01:08.901Z,3.60
2019-01-10T18:03:41.089Z,5.20
2019-01-10T18:06:16.985Z,5.37
2019-01-10T18:08:48.058Z,4.70
2019-01-10T18:11:19.119Z,4.80
2019-01-10T18:13:50.085Z,5.20
2019-01-10T18:16:21.195Z,4.60
2019-01-10T18:18:53.705Z,4.73
2019-01-10T18:21:27.063Z,5.03
2019-01-10T18:24:06.489Z,4.73
2019-01-10T18:26:38.207Z,9.30
2019-01-10T18:29:09.298Z,9.30
2019-01-10T18:31:40.880Z,7.27
2019-01-10T18:34:14.031Z,8.67
2019-01-10T18:36:45.955Z,6.37
2019-01-10T18:39:17.078Z,5.40
2019-01-10T18:41:48.097Z,6.00
2019-01-10T18:44:19.922Z,5.33
2019-01-10T18:46:51.889Z,6.80
2019-01-10T18:49:28.058Z,4.90
2019-01-10T18:51:59.078Z,6.33
2019-01-10T18:54:30.631Z,5.30
2019-01-10T18:57:03.427Z,6.47
2019-01-10T18:59:35.428Z,4.93
2019-01-10T19:02:12.612Z,5.23
2019-01-10T19:04:45.079Z,6.40
2019-01-10T19:07:19.118Z,6.47
2019-01-10T19:09:51.106Z,6.30
2019-01-10T19:12:22.406Z,5.67
2019-01-10T19:14:53.368Z,5.37
2019-01-10T19:17:26.160Z,4.90
2019-01-10T19:19:57.619Z,4.47
2019-01-10T19:22:28.700Z,5.33
2019-01-10T19:25:02.121Z,4.97
2019-01-10T19:27:35.047Z,5.50
2019-01-10T19:30:11.575Z,5.47
2019-01-10T19:32:43.596Z,5.70
2019-01-10T19:35:15.780Z,6.20
2019-01-10T19:37:49.284Z,7.13
2019-01-10T19:40:26.133Z,6.20
2019-01-10T19:42:59.079Z,6.00
2019-01-10T19:45:31.489Z,5.93
2019-01-10T19:48:09.526Z,6.77
2019-01-10T19:50:36.152Z,6.40
2019-01-10T19:53:08.382Z,6.27
2019-01-10T19:55:45.207Z,6.30
2019-01-10T19:58:17.834Z,6.50
2019-01-10T20:00:56.528Z,7.30
2019-01-10T20:03:29.244Z,8.30
2019-01-10T20:06:01.458Z,8.37
2019-01-10T20:08:36.076Z,7.77
2019-01-10T20:11:07.460Z,7.73
2019-01-10T20:13:43.341Z,8.87
2019-01-10T20:16:15.341Z,9.30
2019-01-10T20:18:48.487Z,10.17
2019-01-10T20:21:23.737Z,10.70
2019-01-10T20:23:56.073Z,9.73
2019-01-10T20:26:27.370Z,9.33
2019-01-10T20:28:59.920Z,9.53
2019-01-10T20:31:32.755Z,10.30
2019-01-10T20:34:17.336Z,9.07
2019-01-10T20:36:49.149Z,8.60
2019-01-10T20:39:20.980Z,7.80
2019-01-10T20:42:01.655Z,5.73
2019-01-10T20:44:28.814Z,5.97
2019-01-10T20:47:00.640Z,6.33
2019-01-10T20:49:31.941Z,5.63
2019-01-10T20:52:03.268Z,6.40
2019-01-10T20:54:34.578Z,5.50
2019-01-10T20:57:05.932Z,7.57
2019-01-10T20:59:37.550Z,8.23
2019-01-10T21:02:08.752Z,8.80
2019-01-10T21:04:42.323Z,10.10
2019-01-10T21:07:13.552Z,8.90
2019-01-10T21:09:44.634Z,10.40
2019-01-10T21:12:15.922Z,10.00
2019-01-10T21:14:46.972Z,9.60
2019-01-10T21:17:22.502Z,9.03
2019-01-10T21:19:54.274Z,8.90
2019-01-10T21:22:25.488Z,9.90
2019-01-10T21:24:56.883Z,9.80
2019-01-10T21:27:29.913Z,9.07
2019-01-10T21:30:03.017Z,8.97
2019-01-10T21:32:53.525Z,8.53
2019-01-10T21:35:24.940Z,9.40
2019-01-10T21:37:57.638Z,8.70
2019-01-10T21:40:31.183Z,8.73
2019-01-10T21:43:03.661Z,8.50
2019-01-10T21:45:35.090Z,7.70
2019-01-10T21:48:06.952Z,8.47
2019-01-10T21:50:42.686Z,9.17
2019-01-10T21:53:13.866Z,9.03
2019-01-10T21:55:45.170Z,8.80
2019-01-10T21:58:16.332Z,9.03
2019-01-10T22:00:47.478Z,9.23
2019-01-10T22:03:18.546Z,9.27
2019-01-10T22:05:50.026Z,9.90
2019-01-10T22:08:24.342Z,10.60
2019-01-10T22:10:55.546Z,11.73
2019-01-10T22:13:26.584Z,11.00
2019-01-10T22:15:57.677Z,11.60
2019-01-10T22:18:41.496Z,10.73
2019-01-10T22:21:11.415Z,11.53
2019-01-10T22:23:42.573Z,11.27
2019-01-10T22:26:25.521Z,12.37
2019-01-10T22:29:10.870Z,13.90
2019-01-10T22:31:42.274Z,14.07
2019-01-10T22:34:38.107Z,13.00
2019-01-10T22:37:10.217Z,13.07
2019-01-10T22:39:41.574Z,15.13
2019-01-10T22:42:13.159Z,15.40
2019-01-10T22:44:45.727Z,15.80
2019-01-10T22:47:16.910Z,15.50
2019-01-10T22:49:48.037Z,17.20
2019-01-10T22:52:19.202Z,16.40
2019-01-10T22:54:50.259Z,16.60
2019-01-10T22:57:21.189Z,17.07
2019-01-10T22:59:52.206Z,14.37
2019-01-10T23:02:23.429Z,17.30
2019-01-10T23:04:54.322Z,17.13
2019-01-10T23:07:26.673Z,20.53
2019-01-10T23:10:05.764Z,17.50
2019-01-10T23:12:37.472Z,18.93
2019-01-10T23:15:35.505Z,18.40
2019-01-10T23:18:08.229Z,16.77
2019-01-10T23:20:41.420Z,20.07
2019-01-10T23:23:13.705Z,16.87
2019-01-10T23:25:53.861Z,19.67
2019-01-10T23:28:26.453Z,19.80
2019-01-10T23:31:01.757Z,18.87
2019-01-10T23:33:32.647Z,18.00
2019-01-10T23:36:05.616Z,20.40
2019-01-10T23:38:42.131Z,19.67
2019-01-10T23:41:13.152Z,21.37
2019-01-10T23:43:44.214Z,22.20
2019-01-10T23:46:15.329Z,20.63
2019-01-10T23:48:48.518Z,21.97
2019-01-10T23:51:19.995Z,23.03
2019-01-10T23:53:51.219Z,24.07
2019-01-10T23:56:22.330Z,20.57
2019-01-10T23:58:55.648Z,21.70
